GMMN

Mohammed V International Airport

Casablanca, Morocco
METAR GMMN 250030Z 22003KT 9999 BKN020 14/13 Q1015 NOSIG
Observed Flight Rules
Apr-25 @ 00:30 UTC (18 minutes ago) Marginal Visual Flight Rules
Wind Visibility Clouds
220° at 3 knots 10,000+ meters
  • Broken at 2,000' AGL
Temperatures Readings
Current 14°C / 57°F
Dewpoint 13°C / 55°F
Humidity 94%
Altimeter 29.97" Hg
Pressure 1015 hPa
Elevation 206
METAR GMMN 250030Z 22003KT 9999 BKN020 14/13 Q1015 NOSIG
Observed Flight Rules
Apr-25 @ 00:30 UTC
(18 minutes ago)
MVFR
Wind Visibility
220° at 3 knots 10,000+ meters
Clouds
  • Broken at 2,000' AGL
Temperature Dewpoint
14°C / 57°F 13°C / 55°F
Humidity Altimeter Pressure
94% 29.97" Hg 1015 hPa